Terminal Aerodrome Forecast
Issued by NWS

Home | Current Version | Previous Version | Graphics & Text | Print | Product List | Glossary On
Versions: 1 2 3 4 5 6 7 8 9 10 11 12 13 14 15 16 17 18 19 20 21 22 23 24
000
FTUS43 KLOT 241600 AAB
TAFMDW
TAF AMD
KMDW 241605Z 2416/2512 32005KT 6SM -RA BR SCT008 OVC015
     FM241800 31012KT 6SM BR VCSH OVC015
     FM250000 28014KT 3SM -SN BR OVC009
     FM250300 26012KT P6SM OVC015=

USA.gov is the U.S. government's official web portal to all federal, state and local government web resources and services.